createdAt,value
2023-01-13T00:00:31.365Z,100.00
2023-01-13T00:02:59.630Z,100.00
2023-01-13T00:05:28.337Z,100.00
2023-01-13T00:07:57.907Z,100.00
2023-01-13T00:10:26.071Z,100.00
2023-01-13T00:12:54.245Z,100.00
2023-01-13T00:15:22.504Z,100.00
2023-01-13T00:17:50.699Z,99.58
2023-01-13T00:20:19.178Z,99.27
2023-01-13T00:22:47.406Z,97.25
2023-01-13T00:25:17.500Z,94.29
2023-01-13T00:27:45.687Z,93.56
2023-01-13T00:30:14.474Z,92.18
2023-01-13T00:32:42.631Z,90.90
2023-01-13T00:35:10.820Z,91.20
2023-01-13T00:37:39.378Z,84.57
2023-01-13T00:40:08.904Z,91.42
2023-01-13T00:42:56.210Z,94.45
2023-01-13T00:45:24.533Z,90.58
2023-01-13T00:47:52.733Z,86.36
2023-01-13T00:50:20.897Z,85.25
2023-01-13T00:52:49.059Z,91.60
2023-01-13T00:55:17.433Z,90.69
2023-01-13T00:57:46.975Z,97.64
2023-01-13T01:00:16.002Z,92.97
2023-01-13T01:02:44.172Z,95.15
2023-01-13T01:05:12.988Z,95.89
2023-01-13T01:07:41.131Z,88.83
2023-01-13T01:10:10.463Z,97.33
2023-01-13T01:12:38.678Z,91.39
2023-01-13T01:15:10.206Z,95.32
2023-01-13T01:17:38.453Z,89.16
2023-01-13T01:20:07.425Z,94.84
2023-01-13T01:22:35.613Z,94.85
2023-01-13T01:25:03.842Z,92.43
2023-01-13T01:27:32.049Z,88.99
2023-01-13T01:30:00.261Z,88.50
2023-01-13T01:32:29.790Z,84.13
2023-01-13T01:34:57.965Z,91.76
2023-01-13T01:37:26.185Z,90.72
2023-01-13T01:39:54.481Z,90.02
2023-01-13T01:42:41.664Z,87.60
2023-01-13T01:45:16.934Z,86.93
2023-01-13T01:47:47.521Z,84.13
2023-01-13T01:50:15.840Z,81.88
2023-01-13T01:52:45.731Z,86.50
2023-01-13T01:55:16.085Z,79.89
2023-01-13T01:57:48.028Z,79.95
2023-01-13T02:00:16.566Z,78.94
2023-01-13T02:02:47.869Z,82.64
2023-01-13T02:05:16.656Z,82.11
2023-01-13T02:07:47.457Z,80.47
2023-01-13T02:10:16.385Z,80.95
2023-01-13T02:12:46.236Z,79.20
2023-01-13T02:15:16.906Z,76.45
2023-01-13T02:17:55.414Z,76.89
2023-01-13T02:20:39.971Z,77.89
2023-01-13T02:23:57.840Z,73.74
2023-01-13T02:26:49.797Z,72.61
2023-01-13T02:29:49.884Z,75.47
2023-01-13T02:32:21.637Z,73.80
2023-01-13T02:34:56.271Z,75.13
2023-01-13T02:37:29.777Z,69.81
2023-01-13T02:40:00.854Z,70.70
2023-01-13T02:42:51.381Z,69.33
2023-01-13T02:45:24.461Z,71.92
2023-01-13T02:47:55.818Z,69.34
2023-01-13T02:50:26.812Z,73.65
2023-01-13T02:52:58.329Z,72.59
2023-01-13T02:55:30.317Z,70.17
2023-01-13T02:57:59.618Z,69.58
2023-01-13T03:00:29.771Z,69.73
2023-01-13T03:02:58.223Z,72.07
2023-01-13T03:05:26.762Z,69.51
2023-01-13T03:08:05.530Z,70.26
2023-01-13T03:10:52.561Z,68.90
2023-01-13T03:13:54.223Z,67.84
2023-01-13T03:16:30.670Z,66.72
2023-01-13T03:19:10.224Z,66.67
2023-01-13T03:21:41.760Z,69.82
2023-01-13T03:24:14.456Z,66.80
2023-01-13T03:26:46.585Z,65.83
2023-01-13T03:29:20.213Z,66.63
2023-01-13T03:31:56.880Z,65.07
2023-01-13T03:34:30.311Z,60.77
2023-01-13T03:37:03.350Z,62.20
2023-01-13T03:39:36.012Z,61.95
2023-01-13T03:42:06.845Z,62.59
2023-01-13T03:44:36.712Z,61.72
2023-01-13T03:47:11.819Z,61.82
2023-01-13T03:49:43.312Z,63.33
2023-01-13T03:52:14.824Z,60.68
2023-01-13T03:54:47.617Z,60.46
2023-01-13T03:57:17.210Z,61.70
2023-01-13T03:59:49.767Z,60.55
2023-01-13T04:02:23.595Z,62.63
2023-01-13T04:04:55.351Z,62.91
2023-01-13T04:07:30.817Z,61.26
2023-01-13T04:10:02.023Z,60.50
2023-01-13T04:12:52.176Z,58.93
2023-01-13T04:15:24.518Z,59.41
2023-01-13T04:17:54.760Z,58.98
2023-01-13T04:20:23.020Z,57.02
2023-01-13T04:22:51.239Z,58.08
2023-01-13T04:25:19.531Z,59.81
2023-01-13T04:27:47.804Z,59.18
2023-01-13T04:30:16.454Z,58.40
2023-01-13T04:32:44.716Z,56.32
2023-01-13T04:35:14.460Z,57.47
2023-01-13T04:37:42.693Z,57.18
2023-01-13T04:40:11.918Z,56.73
2023-01-13T04:42:40.176Z,57.33
2023-01-13T04:45:10.662Z,57.14
2023-01-13T04:47:38.962Z,56.41
2023-01-13T04:50:07.807Z,55.39
2023-01-13T04:52:37.503Z,55.68
2023-01-13T04:55:06.663Z,54.92
2023-01-13T04:57:35.285Z,53.07
2023-01-13T05:00:03.768Z,54.36
2023-01-13T05:02:32.087Z,54.15
2023-01-13T05:05:01.063Z,52.61
2023-01-13T05:07:29.508Z,54.81
2023-01-13T05:09:59.538Z,56.07
2023-01-13T05:12:45.394Z,58.60
2023-01-13T05:15:32.474Z,57.46
2023-01-13T05:18:01.287Z,59.21
2023-01-13T05:20:29.547Z,58.75
2023-01-13T05:23:15.508Z,60.60
2023-01-13T05:25:45.194Z,57.31
2023-01-13T05:28:13.465Z,60.57
2023-01-13T05:30:43.467Z,57.32
2023-01-13T05:33:12.389Z,57.20
2023-01-13T05:35:41.485Z,58.09
2023-01-13T05:38:10.058Z,56.08
2023-01-13T05:40:58.145Z,58.37
2023-01-13T05:43:28.987Z,56.75
2023-01-13T05:45:59.708Z,58.38
2023-01-13T05:48:30.061Z,57.55
2023-01-13T05:50:58.555Z,59.79
2023-01-13T05:53:27.049Z,58.92
2023-01-13T05:55:55.580Z,58.85
2023-01-13T05:58:25.212Z,58.98
2023-01-13T06:01:00.984Z,58.91
2023-01-13T06:03:29.303Z,57.39
2023-01-13T06:05:59.556Z,58.51
2023-01-13T06:08:27.981Z,59.75
2023-01-13T06:10:56.275Z,59.65
2023-01-13T06:13:25.352Z,61.02
2023-01-13T06:15:58.973Z,58.81
2023-01-13T06:18:27.875Z,60.89
2023-01-13T06:20:56.542Z,60.24
2023-01-13T06:23:25.059Z,59.96
2023-01-13T06:25:57.283Z,59.28
2023-01-13T06:28:25.767Z,60.08
2023-01-13T06:30:58.767Z,59.75
2023-01-13T06:33:29.955Z,59.07
2023-01-13T06:36:00.524Z,57.73
2023-01-13T06:38:30.210Z,60.55
2023-01-13T06:40:58.709Z,60.51
2023-01-13T06:43:26.054Z,66.54
2023-01-13T06:45:55.933Z,67.55
2023-01-13T06:48:27.889Z,71.19
2023-01-13T06:50:56.226Z,72.76
2023-01-13T06:53:24.490Z,74.56
2023-01-13T06:55:52.773Z,74.80
2023-01-13T06:58:21.075Z,78.63
2023-01-13T07:00:51.492Z,83.94
2023-01-13T07:03:20.181Z,89.16
2023-01-13T07:05:54.892Z,90.15
2023-01-13T07:08:23.931Z,90.22
2023-01-13T07:10:52.929Z,91.78
2023-01-13T07:13:39.099Z,92.67
2023-01-13T07:16:08.830Z,88.44
2023-01-13T07:18:38.015Z,92.40
2023-01-13T07:21:08.915Z,95.94
2023-01-13T07:23:38.488Z,90.98
2023-01-13T07:26:07.663Z,94.38
2023-01-13T07:28:36.265Z,94.94
2023-01-13T07:31:04.815Z,93.02
2023-01-13T07:33:33.413Z,100.00
2023-01-13T07:36:03.467Z,92.64
2023-01-13T07:38:34.018Z,96.02
2023-01-13T07:41:23.942Z,89.80
2023-01-13T07:43:51.847Z,90.88
2023-01-13T07:46:20.423Z,86.94
2023-01-13T07:48:49.119Z,85.81
2023-01-13T07:51:17.688Z,81.48
2023-01-13T07:53:47.407Z,81.44
2023-01-13T07:56:15.741Z,84.26
2023-01-13T07:58:44.969Z,82.49
2023-01-13T08:01:16.683Z,82.29
2023-01-13T08:03:45.217Z,76.78
2023-01-13T08:06:13.649Z,75.69
2023-01-13T08:08:41.923Z,74.99
2023-01-13T08:11:11.545Z,72.34
2023-01-13T08:13:39.897Z,74.38
2023-01-13T08:16:10.059Z,76.80
2023-01-13T08:18:39.177Z,75.05
2023-01-13T08:21:09.146Z,74.54
2023-01-13T08:23:37.729Z,70.52
2023-01-13T08:26:07.876Z,74.69
2023-01-13T08:28:37.586Z,71.21
2023-01-13T08:31:07.597Z,74.02
2023-01-13T08:33:36.117Z,75.14
2023-01-13T08:36:09.923Z,72.99
2023-01-13T08:38:38.787Z,73.45
2023-01-13T08:41:11.075Z,76.44
2023-01-13T08:43:40.709Z,76.72
2023-01-13T08:46:09.118Z,75.31
2023-01-13T08:48:37.526Z,77.29
2023-01-13T08:51:07.036Z,77.40
2023-01-13T08:53:35.489Z,81.00
2023-01-13T08:56:08.421Z,79.48
2023-01-13T08:58:36.715Z,74.82
2023-01-13T09:01:08.487Z,81.10
2023-01-13T09:03:36.906Z,79.53
2023-01-13T09:06:05.922Z,76.09
2023-01-13T09:08:34.354Z,78.69
2023-01-13T09:11:22.613Z,77.93
2023-01-13T09:13:49.899Z,75.51
2023-01-13T09:16:19.590Z,77.93
2023-01-13T09:18:48.336Z,71.00
2023-01-13T09:21:16.643Z,70.32
2023-01-13T09:23:44.905Z,70.45
2023-01-13T09:26:13.980Z,73.82
2023-01-13T09:28:42.226Z,71.81
2023-01-13T09:31:10.520Z,71.80
2023-01-13T09:33:58.024Z,72.64
2023-01-13T09:36:26.397Z,74.36
2023-01-13T09:38:54.650Z,73.26
2023-01-13T09:41:43.623Z,76.63
2023-01-13T09:44:15.373Z,75.59
2023-01-13T09:46:47.527Z,71.47
2023-01-13T09:49:20.856Z,67.80
2023-01-13T09:51:53.940Z,68.53
2023-01-13T09:54:32.053Z,66.72
2023-01-13T09:57:00.594Z,69.56
2023-01-13T09:59:30.702Z,67.71
2023-01-13T10:02:04.165Z,68.83
2023-01-13T10:04:33.833Z,66.97
2023-01-13T10:07:05.092Z,70.45
2023-01-13T10:09:35.694Z,69.91
2023-01-13T10:12:21.119Z,66.98
2023-01-13T10:14:53.135Z,66.70
2023-01-13T10:17:27.281Z,68.20
2023-01-13T10:20:02.902Z,63.08
2023-01-13T10:22:51.889Z,67.92
2023-01-13T10:25:42.120Z,67.22
2023-01-13T10:28:11.880Z,65.65
2023-01-13T10:30:42.361Z,64.21
2023-01-13T10:33:12.658Z,66.94
2023-01-13T10:35:59.959Z,65.10
2023-01-13T10:38:31.262Z,65.54
2023-01-13T10:41:01.001Z,65.69
2023-01-13T10:43:30.602Z,68.02
2023-01-13T10:46:02.482Z,68.89
2023-01-13T10:48:41.748Z,66.61
2023-01-13T10:51:21.407Z,68.13
2023-01-13T10:53:59.255Z,70.43
2023-01-13T10:56:29.758Z,73.60
2023-01-13T10:59:15.582Z,71.32
2023-01-13T11:01:45.613Z,81.57
2023-01-13T11:04:27.819Z,76.02
2023-01-13T11:06:58.132Z,83.16
2023-01-13T11:09:27.189Z,81.45
2023-01-13T11:11:56.537Z,79.31
2023-01-13T11:14:36.793Z,75.65
2023-01-13T11:17:10.758Z,76.99
2023-01-13T11:19:44.567Z,73.68
2023-01-13T11:22:19.004Z,71.01
2023-01-13T11:24:51.755Z,72.84
2023-01-13T11:27:23.101Z,70.56
2023-01-13T11:30:00.653Z,71.31
2023-01-13T11:32:31.968Z,74.69
2023-01-13T11:35:03.055Z,79.78
2023-01-13T11:37:34.433Z,78.51
2023-01-13T11:40:06.709Z,81.78
2023-01-13T11:42:39.689Z,80.70
2023-01-13T11:45:17.805Z,80.78
2023-01-13T11:47:48.164Z,78.17
2023-01-13T11:50:19.913Z,86.25
2023-01-13T11:53:06.174Z,86.52
2023-01-13T11:55:42.344Z,88.04
2023-01-13T11:58:45.591Z,87.29
2023-01-13T12:01:30.451Z,94.70
2023-01-13T12:04:13.341Z,90.59
2023-01-13T12:06:43.525Z,86.54
2023-01-13T12:09:30.565Z,86.43
2023-01-13T12:12:20.664Z,85.81
2023-01-13T12:15:03.688Z,86.30
2023-01-13T12:17:36.156Z,86.00
2023-01-13T12:20:17.825Z,86.10
2023-01-13T12:22:47.753Z,89.11
2023-01-13T12:25:22.112Z,84.80
2023-01-13T12:27:53.762Z,88.93
2023-01-13T12:30:25.336Z,88.43
2023-01-13T12:35:42.517Z,100.00
2023-01-13T12:38:15.029Z,100.00
2023-01-13T12:40:52.220Z,100.00
2023-01-13T12:43:39.606Z,100.00
2023-01-13T12:46:36.635Z,100.00
2023-01-13T12:49:08.336Z,100.00
2023-01-13T12:51:38.085Z,99.78
2023-01-13T12:54:35.089Z,100.00
2023-01-13T12:57:16.073Z,94.36
2023-01-13T12:59:49.930Z,91.51
2023-01-13T13:02:36.414Z,97.84
2023-01-13T13:05:43.107Z,96.67
2023-01-13T13:08:19.639Z,96.75
2023-01-13T13:11:00.183Z,100.00
2023-01-13T13:13:47.350Z,97.56
2023-01-13T13:16:37.616Z,98.52
2023-01-13T13:19:44.201Z,100.00
2023-01-13T13:22:37.846Z,97.03
2023-01-13T13:25:22.130Z,93.26
2023-01-13T13:28:09.754Z,96.85
2023-01-13T13:30:40.851Z,98.78
2023-01-13T13:33:34.617Z,91.90
2023-01-13T13:36:12.892Z,98.67
2023-01-13T13:39:13.502Z,100.00
2023-01-13T13:42:01.664Z,100.00
2023-01-13T13:44:49.890Z,100.00
2023-01-13T13:47:19.553Z,97.30
2023-01-13T13:49:52.706Z,100.00
2023-01-13T13:52:23.235Z,96.24
2023-01-13T13:54:53.699Z,99.97
2023-01-13T13:57:24.604Z,96.26
2023-01-13T13:59:55.607Z,100.00
2023-01-13T14:02:30.118Z,100.00
2023-01-13T14:05:09.217Z,100.00
2023-01-13T14:07:44.262Z,100.00
2023-01-13T14:10:19.852Z,100.00
2023-01-13T14:12:48.341Z,100.00
2023-01-13T14:15:28.105Z,100.00
2023-01-13T14:17:58.117Z,100.00
2023-01-13T14:20:28.096Z,100.00
2023-01-13T14:23:00.685Z,100.00
2023-01-13T14:25:31.561Z,100.00
2023-01-13T14:28:01.954Z,100.00
2023-01-13T14:30:30.555Z,100.00
2023-01-13T14:33:01.065Z,100.00
2023-01-13T14:35:30.170Z,100.00
2023-01-13T14:38:05.034Z,100.00
2023-01-13T14:40:46.984Z,100.00
2023-01-13T14:43:17.282Z,100.00
2023-01-13T14:45:56.756Z,100.00
2023-01-13T14:48:32.331Z,100.00
2023-01-13T14:51:02.429Z,100.00
2023-01-13T14:53:37.822Z,100.00
2023-01-13T14:56:55.323Z,100.00
2023-01-13T14:59:42.773Z,100.00
2023-01-13T15:02:47.592Z,100.00
2023-01-13T15:05:38.106Z,100.00
2023-01-13T15:08:18.299Z,100.00
2023-01-13T15:10:48.799Z,100.00
2023-01-13T15:13:26.510Z,100.00
2023-01-13T15:15:56.797Z,100.00
2023-01-13T15:18:25.603Z,100.00
2023-01-13T15:20:56.187Z,100.00
2023-01-13T15:23:24.233Z,100.00
2023-01-13T15:25:52.429Z,100.00
2023-01-13T15:28:22.187Z,100.00
2023-01-13T15:30:51.719Z,100.00
2023-01-13T15:33:20.769Z,100.00
2023-01-13T15:35:50.483Z,100.00
2023-01-13T15:38:21.371Z,100.00
2023-01-13T15:40:51.008Z,100.00
2023-01-13T15:43:38.419Z,100.00
2023-01-13T15:46:29.343Z,100.00
2023-01-13T15:48:58.541Z,100.00
2023-01-13T15:51:27.067Z,100.00
2023-01-13T15:54:00.603Z,100.00
2023-01-13T15:56:29.280Z,100.00
2023-01-13T15:58:57.596Z,100.00
2023-01-13T16:01:25.885Z,100.00
2023-01-13T16:03:55.905Z,100.00
2023-01-13T16:06:27.714Z,100.00
2023-01-13T16:08:57.362Z,100.00
2023-01-13T16:11:25.778Z,100.00
2023-01-13T16:13:54.135Z,100.00
2023-01-13T16:16:24.244Z,100.00
2023-01-13T16:18:53.516Z,100.00
2023-01-13T16:21:22.564Z,100.00
2023-01-13T16:23:51.997Z,100.00
2023-01-13T16:26:23.476Z,100.00
2023-01-13T16:28:53.199Z,100.00
2023-01-13T16:31:26.739Z,100.00
2023-01-13T16:33:55.113Z,100.00
2023-01-13T16:36:23.496Z,100.00
2023-01-13T16:38:53.296Z,100.00
2023-01-13T16:41:24.834Z,100.00
2023-01-13T16:43:53.598Z,100.00
2023-01-13T16:46:24.659Z,100.00
2023-01-13T16:48:54.598Z,100.00
2023-01-13T16:51:24.622Z,100.00
2023-01-13T16:53:53.110Z,100.00
2023-01-13T16:56:27.720Z,100.00
2023-01-13T16:58:57.901Z,100.00
2023-01-13T17:01:28.060Z,100.00
2023-01-13T17:03:57.288Z,100.00
2023-01-13T17:06:28.907Z,100.00
2023-01-13T17:09:01.624Z,100.00
2023-01-13T17:11:31.436Z,100.00
2023-01-13T17:13:59.692Z,100.00
2023-01-13T17:16:28.332Z,100.00
2023-01-13T17:18:56.656Z,100.00
2023-01-13T17:21:24.941Z,100.00
2023-01-13T17:23:53.233Z,100.00
2023-01-13T17:26:29.928Z,100.00
2023-01-13T17:29:00.287Z,100.00
2023-01-13T17:31:29.496Z,100.00
2023-01-13T17:33:57.927Z,100.00
2023-01-13T17:36:26.159Z,100.00
2023-01-13T17:38:55.043Z,100.00
2023-01-13T17:41:23.352Z,100.00
2023-01-13T17:43:51.822Z,100.00
2023-01-13T17:46:23.075Z,100.00
2023-01-13T17:48:52.750Z,100.00
2023-01-13T17:51:22.578Z,100.00
2023-01-13T17:53:50.978Z,100.00
2023-01-13T17:56:19.623Z,100.00
2023-01-13T17:58:47.895Z,100.00
2023-01-13T18:01:19.275Z,100.00
2023-01-13T18:03:49.399Z,100.00
2023-01-13T18:06:18.912Z,100.00
2023-01-13T18:08:49.096Z,100.00
2023-01-13T18:11:19.739Z,100.00
2023-01-13T18:13:47.936Z,100.00
2023-01-13T18:16:18.236Z,100.00
2023-01-13T18:18:49.484Z,100.00
2023-01-13T18:21:52.168Z,100.00
2023-01-13T18:24:38.075Z,100.00
2023-01-13T18:27:22.997Z,100.00
2023-01-13T18:29:52.930Z,100.00
2023-01-13T18:32:21.764Z,100.00
2023-01-13T18:35:01.628Z,100.00
2023-01-13T18:37:35.789Z,100.00
2023-01-13T18:40:04.991Z,100.00
2023-01-13T18:42:50.971Z,100.00
2023-01-13T18:45:20.052Z,100.00
2023-01-13T18:47:48.351Z,100.00
2023-01-13T18:50:18.824Z,100.00
2023-01-13T18:52:47.266Z,100.00
2023-01-13T18:55:15.653Z,100.00
2023-01-13T18:57:43.943Z,100.00
2023-01-13T19:00:14.236Z,100.00
2023-01-13T19:02:42.620Z,100.00
2023-01-13T19:05:11.225Z,100.00
2023-01-13T19:07:41.069Z,100.00
2023-01-13T19:10:10.481Z,100.00
2023-01-13T19:12:38.811Z,100.00
2023-01-13T19:15:08.831Z,100.00
2023-01-13T19:17:37.308Z,100.00
2023-01-13T19:20:06.311Z,100.00
2023-01-13T19:22:36.068Z,100.00
2023-01-13T19:25:06.706Z,100.00
2023-01-13T19:27:34.826Z,100.00
2023-01-13T19:30:03.925Z,100.00
2023-01-13T19:32:33.924Z,100.00
2023-01-13T19:35:02.155Z,100.00
2023-01-13T19:37:31.589Z,100.00
2023-01-13T19:40:00.424Z,100.00
2023-01-13T19:42:47.787Z,100.00
2023-01-13T19:45:30.696Z,100.00
2023-01-13T19:48:01.858Z,100.00
2023-01-13T19:50:30.312Z,100.00
2023-01-13T19:52:58.792Z,100.00
2023-01-13T19:55:28.083Z,100.00
2023-01-13T19:57:57.703Z,100.00
2023-01-13T20:00:26.183Z,100.00
2023-01-13T20:02:56.699Z,100.00
2023-01-13T20:05:26.216Z,100.00
2023-01-13T20:07:54.542Z,100.00
2023-01-13T20:10:23.765Z,100.00
2023-01-13T20:12:52.162Z,100.00
2023-01-13T20:15:21.782Z,100.00
2023-01-13T20:17:50.069Z,100.00
2023-01-13T20:20:20.557Z,100.00
2023-01-13T20:22:50.269Z,100.00
2023-01-13T20:25:19.023Z,100.00
2023-01-13T20:27:48.245Z,100.00
2023-01-13T20:30:16.985Z,100.00
2023-01-13T20:32:46.611Z,100.00
2023-01-13T20:35:14.875Z,100.00
2023-01-13T20:37:43.606Z,100.00
2023-01-13T20:40:15.219Z,100.00
2023-01-13T20:42:45.092Z,100.00
2023-01-13T20:45:17.207Z,100.00
2023-01-13T20:47:47.314Z,100.00
2023-01-13T20:50:16.200Z,100.00
2023-01-13T20:52:44.619Z,100.00
2023-01-13T20:55:13.425Z,100.00
2023-01-13T20:57:42.173Z,100.00
2023-01-13T21:00:11.533Z,100.00
2023-01-13T21:02:41.532Z,100.00
2023-01-13T21:05:11.191Z,100.00
2023-01-13T21:07:39.485Z,100.00
2023-01-13T21:10:11.273Z,100.00
2023-01-13T21:12:57.494Z,100.00
2023-01-13T21:15:27.281Z,100.00
2023-01-13T21:18:13.195Z,100.00
2023-01-13T21:20:43.009Z,100.00
2023-01-13T21:23:11.903Z,100.00
2023-01-13T21:25:40.625Z,100.00
2023-01-13T21:28:11.537Z,100.00
2023-01-13T21:30:40.428Z,100.00
2023-01-13T21:33:08.939Z,100.00
2023-01-13T21:35:39.537Z,100.00
2023-01-13T21:38:10.071Z,100.00
2023-01-13T21:40:38.240Z,100.00
2023-01-13T21:43:24.228Z,100.00
2023-01-13T21:46:10.200Z,100.00
2023-01-13T21:48:38.469Z,100.00
2023-01-13T21:51:06.943Z,100.00
2023-01-13T21:53:36.604Z,100.00
2023-01-13T21:56:05.193Z,100.00
2023-01-13T21:58:33.439Z,100.00
2023-01-13T22:01:02.516Z,100.00
2023-01-13T22:03:50.888Z,100.00
2023-01-13T22:06:19.142Z,100.00
2023-01-13T22:08:48.848Z,100.00
2023-01-13T22:11:17.134Z,100.00
2023-01-13T22:14:11.567Z,100.00
2023-01-13T22:16:42.203Z,100.00
2023-01-13T22:19:10.718Z,100.00
2023-01-13T22:21:39.512Z,100.00
2023-01-13T22:24:09.927Z,100.00
2023-01-13T22:26:38.151Z,100.00
2023-01-13T22:29:06.479Z,100.00
2023-01-13T22:31:35.187Z,100.00
2023-01-13T22:34:03.541Z,100.00
2023-01-13T22:36:31.802Z,100.00
2023-01-13T22:39:01.235Z,100.00
2023-01-13T22:41:30.872Z,100.00
2023-01-13T22:43:59.126Z,100.00
2023-01-13T22:46:27.408Z,100.00
2023-01-13T22:48:55.949Z,100.00
2023-01-13T22:51:26.062Z,100.00
2023-01-13T22:53:54.864Z,100.00
2023-01-13T22:56:24.824Z,100.00
2023-01-13T22:58:58.709Z,100.00
2023-01-13T23:01:28.132Z,100.00
2023-01-13T23:03:56.528Z,100.00
2023-01-13T23:06:26.529Z,100.00
2023-01-13T23:08:55.090Z,100.00
2023-01-13T23:11:25.318Z,100.00
2023-01-13T23:13:59.712Z,100.00
2023-01-13T23:16:28.847Z,100.00
2023-01-13T23:18:57.369Z,100.00
2023-01-13T23:21:27.436Z,100.00
2023-01-13T23:23:58.445Z,100.00
2023-01-13T23:26:27.319Z,100.00
2023-01-13T23:29:00.744Z,100.00
2023-01-13T23:31:29.500Z,100.00
2023-01-13T23:33:57.805Z,100.00
2023-01-13T23:36:27.381Z,100.00
2023-01-13T23:38:56.899Z,100.00
2023-01-13T23:41:26.221Z,100.00
2023-01-13T23:43:57.654Z,100.00
2023-01-13T23:46:28.664Z,100.00
2023-01-13T23:48:57.022Z,100.00
2023-01-13T23:51:26.340Z,100.00
2023-01-13T23:53:55.198Z,100.00
2023-01-13T23:56:24.796Z,100.00
2023-01-13T23:58:53.354Z,100.00
